Time;durP1;ratioP1;P1;durP2;ratioP2;P2;SDS_P1;SDS_P2;PMS_P1;PMS_P2;Temp;Humidity;BMP_temperature;BMP_pressure;BME280_temperature;BME280_humidity;BME280_pressure;Samples;Min_cycle;Max_cycle;Signal;HPM_P1;HPM_P2
2022/06/16 00:01:43;;;;;;;15.27;7.57;;;;;;;18.57;70.68;100979.06;4961420;28;20111;-86
2022/06/16 00:04:18;;;;;;;11.02;6.43;;;;;;;18.58;72.06;100975.50;4940020;28;20042;-89
2022/06/16 00:07:28;;;;;;;10.23;6.65;;;;;;;18.32;70.62;100947.75;4968784;28;20082;-90
2022/06/16 00:10:04;;;;;;;20.45;8.23;;;;;;;18.61;71.13;100999.31;4962435;28;20039;-87
2022/06/16 00:12:48;;;;;;;16.00;7.45;;;;;;;18.56;69.57;100990.59;4982395;28;20037;-90
2022/06/16 00:15:19;;;;;;;;;;;;;;;18.71;68.64;101015.97;4963670;28;20130;-90
2022/06/16 00:17:53;;;;;;;14.80;6.18;;;;;;;18.51;72.61;100992.50;4966738;28;20000;-90
2022/06/16 00:21:25;;;;;;;;;;;;;;;;;;;;;
2022/06/16 01:17:15;;;;;;;14.65;9.07;;;;;;;18.77;76.43;100989.25;5086516;23;20062;-88
2022/06/16 01:20:10;;;;;;;14.95;6.95;;;;;;;18.44;75.78;100930.63;4903436;29;20465;-89
2022/06/16 01:23:10;;;;;;;16.17;8.15;;;;;;;18.81;76.38;100990.91;4904936;29;20032;-90
2022/06/16 01:27:06;;;;;;;;;;;;;;;;;;;;;
2022/06/16 01:34:04;;;;;;;14.93;8.18;;;;;;;18.17;78.39;100928.63;4809630;29;20058;-90
2022/06/16 01:54:15;;;;;;;;;;;;;;;;;;;;;
2022/06/16 01:58:00;;;;;;;;;;;;;;;;;;;;;
2022/06/16 02:00:43;;;;;;;17.63;8.23;;;;;;;18.10;79.13;100989.88;4783265;29;20069;-91
2022/06/16 02:07:05;;;;;;;15.02;8.07;;;;;;;17.90;79.51;100970.84;4891714;29;20106;-89
2022/06/16 02:09:42;;;;;;;13.38;8.65;;;;;;;17.84;79.96;100971.84;4906965;29;20055;-89
2022/06/16 02:12:58;;;;;;;17.15;8.27;;;;;;;17.72;81.21;100921.63;4905048;29;20044;-88
2022/06/16 02:15:48;;;;;;;12.23;6.75;;;;;;;17.78;83.05;100957.78;4907797;29;20040;-89
2022/06/16 02:18:33;;;;;;;14.68;7.68;;;;;;;17.53;82.76;100889.28;4898246;29;20130;-90
2022/06/16 02:21:33;;;;;;;14.60;7.95;;;;;;;17.61;82.93;100935.13;4905659;29;20444;-87
2022/06/16 02:25:07;;;;;;;;;;;;;;;;;;;;;
2022/06/16 02:34:57;;;;;;;13.68;7.65;;;;;;;17.18;83.86;100946.56;4771347;29;20131;-90
2022/06/16 02:37:50;;;;;;;12.68;7.35;;;;;;;17.80;81.82;100999.31;4825991;29;20149;-87
2022/06/16 02:40:53;;;;;;;20.45;10.45;;;;;;;17.21;82.85;100925.31;4868194;29;20087;-88
2022/06/16 02:44:01;;;;;;;12.27;8.50;;;;;;;17.77;82.84;100978.16;4901744;29;20556;-87
2022/06/16 02:46:52;;;;;;;13.57;9.40;;;;;;;17.67;82.88;100985.41;4898419;29;21134;-88
2022/06/16 02:49:44;;;;;;;30.02;8.75;;;;;;;17.75;83.80;101018.88;4892298;29;20047;-89
2022/06/16 02:52:44;;;;;;;16.77;9.02;;;;;;;17.57;83.90;100967.06;4905943;29;20040;-92
2022/06/16 02:56:09;;;;;;;;;;;;;;;;;;;;;
2022/06/16 02:58:44;;;;;;;15.02;9.70;;;;;;;17.74;85.35;100999.44;4889553;29;20049;-90
2022/06/16 03:05:05;;;;;;;17.50;9.68;;;;;;;17.57;86.61;101012.19;4867490;29;20052;-90
2022/06/16 03:07:45;;;;;;;16.80;7.50;;;;;;;17.39;86.48;100986.88;4906279;29;20044;-91
2022/06/16 03:14:02;;;;;;;;;;;;;;;;;;;;;
2022/06/16 03:16:46;;;;;;;14.40;8.43;;;;;;;17.55;85.64;101009.53;4900351;29;20067;-90
2022/06/16 03:33:20;;;;;;;9.68;7.28;;;;;;;17.47;86.01;101016.78;4811602;29;20098;-87
2022/06/16 03:37:29;;;;;;;;;;;;;;;;;;;;;
2022/06/16 03:46:26;;;;;;;14.77;10.25;;;;;;;17.60;83.39;100990.88;4751678;30;20138;-89
2022/06/16 03:48:52;;;;;;;13.68;9.35;;;;;;;16.94;83.36;100936.44;4740019;30;20134;-85
2022/06/16 03:51:18;;;;;;;11.10;6.80;;;;;;;17.44;83.29;100988.53;4755369;30;20135;-87
2022/06/16 03:53:51;;;;;;;16.33;8.68;;;;;;;17.06;83.27;100930.91;4857688;29;20047;-89
2022/06/16 03:56:17;;;;;;;16.17;10.07;;;;;;;17.07;83.23;100945.91;4904010;29;20040;-88
2022/06/16 04:08:57;;;;;;;13.13;9.15;;;;;;;17.35;83.07;100985.16;4908671;29;20790;-89
2022/06/16 04:11:32;;;;;;;15.23;8.95;;;;;;;17.54;83.28;101002.50;4908762;29;20046;-88
2022/06/16 04:35:02;;;;;;;18.38;11.15;;;;;;;18.01;82.51;101005.13;4869438;29;20063;-90
2022/06/16 04:37:41;;;;;;;;;;;;;;;;;;;;;
2022/06/16 04:40:44;;;;;;;14.70;9.45;;;;;;;18.06;83.36;101019.19;4778874;29;20039;-89
2022/06/16 05:16:08;;;;;;;13.70;9.40;;;;;;;19.93;73.42;100992.38;5229378;23;20057;-86
2022/06/16 05:18:52;;;;;;;;;;;;;;;;;;;;;
2022/06/16 05:22:41;;;;;;;;;;;;;;;;;;;;;
2022/06/16 05:24:56;;;;;;;26.70;15.15;;;;;;;20.54;70.38;101003.81;4865599;29;20044;-89
2022/06/16 05:27:34;;;;;;;24.17;12.18;;;;;;;20.75;70.90;101001.41;4843692;29;20057;-90
2022/06/16 05:30:02;;;;;;;22.48;14.20;;;;;;;20.84;70.89;100993.97;4867322;29;20033;-90
2022/06/16 05:32:31;;;;;;;26.42;14.55;;;;;;;20.91;69.81;100964.41;4867439;29;20033;-91
2022/06/16 05:34:56;;;;;;;13.68;9.35;;;;;;;21.35;66.56;101010.03;4852368;29;20132;-89
2022/06/16 05:37:55;;;;;;;14.60;9.60;;;;;;;21.37;67.47;101010.84;4854001;29;20096;-90
2022/06/16 05:40:21;;;;;;;15.60;9.75;;;;;;;;;;4838822;29;20029;-87
2022/06/16 05:42:47;;;;;;;21.73;11.98;;;;;;;21.31;67.82;100953.22;4855462;29;20643;-89
2022/06/16 05:45:14;;;;;;;23.17;10.48;;;;;;;21.11;66.00;100969.94;4871571;29;20047;-90
2022/06/16 05:47:42;;;;;;;26.33;12.82;;;;;;;21.16;66.80;100959.09;4818869;29;20058;-89
2022/06/16 05:50:08;;;;;;;693.92;458.30;;;;;;;21.70;65.55;101008.81;4849131;29;20134;-87
2022/06/16 05:52:46;;;;;;;21.33;11.73;;;;;;;21.98;68.64;101014.00;4871432;29;20065;-89
2022/06/16 05:55:13;;;;;;;34.80;17.30;;;;;;;21.88;64.99;100953.81;4866492;29;20041;-73
2022/06/16 05:57:39;;;;;;;55.53;25.67;;;;;;;22.16;65.53;100960.78;4857846;29;20132;-74
2022/06/16 06:00:06;;;;;;;73.15;34.25;;;;;;;22.83;63.75;101035.66;4856330;29;20122;-75
2022/06/16 06:02:32;;;;;;;1174.50;652.13;;;;;;;22.46;64.03;100972.94;4861597;29;20049;-75
2022/06/16 06:04:58;;;;;;;42.75;22.00;;;;;;;23.06;63.09;101056.16;4861997;29;20053;-76
2022/06/16 06:07:25;;;;;;;53.08;29.60;;;;;;;22.64;64.52;101007.88;4862393;29;21035;-75
2022/06/16 06:18:06;;;;;;;22.13;11.77;;;;;;;22.45;65.19;101035.41;4862378;29;20086;-76
2022/06/16 06:20:32;;;;;;;32.60;13.02;;;;;;;22.73;64.61;101061.03;4860179;29;20064;-75
2022/06/16 06:22:57;;;;;;;846.28;499.88;;;;;;;22.78;61.94;100997.53;4845135;29;20049;-75
2022/06/16 06:25:24;;;;;;;52.80;26.48;;;;;;;23.48;62.44;101065.09;4847696;29;20490;-74
2022/06/16 06:27:50;;;;;;;22.05;14.45;;;;;;;22.82;62.36;100995.56;4842927;29;20041;-74
2022/06/16 06:30:26;;;;;;;178.75;32.75;;;;;;;23.58;61.67;101047.69;4859153;29;20049;-75
2022/06/16 06:32:52;;;;;;;57.67;26.15;;;;;;;23.58;60.17;101027.13;4861978;29;20041;-74
2022/06/16 06:35:19;;;;;;;80.88;22.58;;;;;;;23.36;58.99;100994.16;4863558;29;20053;-75
2022/06/16 06:37:45;;;;;;;46.53;26.05;;;;;;;23.87;58.96;101053.59;4839916;29;20054;-74
2022/06/16 06:40:19;;;;;;;961.60;524.80;;;;;;;23.75;58.39;100988.88;4860254;29;20072;-75
2022/06/16 06:42:45;;;;;;;1036.47;573.25;;;;;;;24.11;58.21;101043.53;4859402;29;20045;-75
2022/06/16 06:45:10;;;;;;;1043.10;576.10;;;;;;;23.39;58.00;100976.19;4843448;29;20410;-75
2022/06/16 06:47:36;;;;;;;625.53;362.58;;;;;;;22.68;59.67;100985.44;4858787;29;20052;-77
2022/06/16 06:50:02;;;;;;;745.92;404.95;;;;;;;22.57;59.90;100969.84;4844420;29;20417;-73
2022/06/16 06:52:27;;;;;;;745.08;399.55;;;;;;;22.80;59.03;100998.31;4858141;29;20069;-74
2022/06/16 06:54:53;;;;;;;23.67;12.85;;;;;;;23.42;57.12;101033.22;4859384;29;20033;-74
2022/06/16 06:57:26;;;;;;;23.83;10.50;;;;;;;23.37;58.51;100991.44;4860952;29;20188;-74
2022/06/16 06:59:52;;;;;;;346.25;157.50;;;;;;;23.77;57.47;101042.41;4861075;29;20128;-74
2022/06/16 07:02:19;;;;;;;40.55;23.20;;;;;;;24.20;56.18;101054.72;4858343;29;20122;-75
2022/06/16 07:04:45;;;;;;;281.23;135.43;;;;;;;24.12;55.20;100984.50;4859624;29;20049;-74
2022/06/16 07:07:14;;;;;;;383.60;179.68;;;;;;;24.32;54.65;100977.28;4860317;29;20120;-75
2022/06/16 07:09:40;;;;;;;34.15;20.05;;;;;;;24.16;51.26;100985.19;4859678;29;20059;-76
2022/06/16 07:12:13;;;;;;;35.45;17.50;;;;;;;24.55;52.02;101035.25;4824514;29;20080;-75
2022/06/16 07:14:40;;;;;;;22.10;13.05;;;;;;;24.65;51.70;101036.53;4842727;29;20088;-75
2022/06/16 07:17:14;;;;;;;121.65;56.83;;;;;;;24.49;52.15;101025.69;4849786;29;20128;-76
2022/06/16 07:19:40;;;;;;;637.67;356.90;;;;;;;24.40;51.44;100986.72;4861479;29;20134;-76
2022/06/16 07:22:07;;;;;;;22.45;13.32;;;;;;;24.29;51.08;100999.78;4845821;29;20034;-75
2022/06/16 07:24:33;;;;;;;617.63;344.98;;;;;;;24.46;51.36;100977.47;4858821;29;20084;-75
2022/06/16 07:27:00;;;;;;;73.53;35.97;;;;;;;24.69;50.44;100983.56;4859074;29;20041;-75
2022/06/16 07:29:26;;;;;;;651.85;387.35;;;;;;;24.67;49.39;100991.69;4856482;29;20056;-75
2022/06/16 07:31:53;;;;;;;557.47;317.02;;;;;;;25.08;53.24;101023.66;4860942;29;20101;-75
2022/06/16 07:34:19;;;;;;;591.67;329.55;;;;;;;25.08;48.85;101014.75;4862179;29;20029;-75
2022/06/16 07:36:44;;;;;;;33.03;17.73;;;;;;;25.25;50.55;101041.63;4844581;29;20662;-75
2022/06/16 07:39:12;;;;;;;1333.30;681.45;;;;;;;25.36;48.93;101030.34;4860886;29;20057;-75
2022/06/16 07:41:39;;;;;;;23.23;13.88;;;;;;;25.27;51.29;100994.06;4862302;29;20053;-75
2022/06/16 07:44:08;;;;;;;26.75;14.68;;;;;;;25.15;48.44;100984.81;4864719;29;20060;-76
2022/06/16 07:46:35;;;;;;;19.48;8.05;;;;;;;25.23;47.17;101006.78;4858695;29;20059;-82
2022/06/16 07:49:04;;;;;;;23.77;9.30;;;;;;;25.53;47.86;101016.03;4864438;29;20086;-87
2022/06/16 07:51:29;;;;;;;12.27;6.07;;;;;;;25.26;48.27;100987.84;4864693;29;20054;-85
2022/06/16 07:53:55;;;;;;;12.90;7.65;;;;;;;25.43;47.88;100978.88;4868778;29;20485;-87
2022/06/16 07:56:22;;;;;;;17.42;9.38;;;;;;;25.49;49.19;101023.34;4850417;29;20056;-85
2022/06/16 07:58:50;;;;;;;17.40;9.40;;;;;;;25.63;48.37;101015.44;4865003;29;20052;-85
2022/06/16 08:01:15;;;;;;;24.52;10.20;;;;;;;25.37;52.98;100962.22;4850557;29;20039;-83
2022/06/16 08:03:41;;;;;;;452.23;257.75;;;;;;;25.28;56.04;101010.09;4870271;29;20065;-87
2022/06/16 08:06:14;;;;;;;26.05;11.77;;;;;;;25.06;48.69;101020.19;4853491;29;20072;-84
2022/06/16 08:08:40;;;;;;;16.85;7.38;;;;;;;24.70;54.40;100958.47;4864564;29;20116;-84
2022/06/16 08:11:06;;;;;;;21.15;9.48;;;;;;;24.71;50.80;100976.31;4864485;29;20139;-84
2022/06/16 08:13:33;;;;;;;12.63;7.75;;;;;;;24.58;51.48;100974.25;4863730;29;20049;-84
2022/06/16 08:15:59;;;;;;;30.25;12.40;;;;;;;24.31;48.46;100948.75;4867586;29;20068;-86
2022/06/16 08:18:27;;;;;;;11.90;6.13;;;;;;;24.82;50.92;101025.84;4866517;29;20053;-87
2022/06/16 08:20:53;;;;;;;13.13;6.95;;;;;;;24.78;49.32;100993.84;4863496;29;20041;-83
2022/06/16 08:23:28;;;;;;;12.85;6.40;;;;;;;25.64;48.08;101027.06;4862035;29;20462;-82
2022/06/16 08:25:55;;;;;;;9.23;5.30;;;;;;;25.89;47.47;101037.41;4863537;29;20084;-79
2022/06/16 08:28:22;;;;;;;18.55;7.03;;;;;;;25.94;46.85;101029.06;4860357;29;20084;-81
2022/06/16 08:30:48;;;;;;;17.38;9.15;;;;;;;25.88;44.99;101031.16;4849763;29;20060;-80
2022/06/16 08:33:16;;;;;;;17.15;8.82;;;;;;;25.72;43.62;100975.59;4866809;29;20147;-81
2022/06/16 08:35:44;;;;;;;17.77;6.97;;;;;;;25.77;43.68;100979.75;4867415;29;20049;-80
2022/06/16 08:38:31;;;;;;;10.85;6.25;;;;;;;26.56;44.53;100978.13;4864411;29;20117;-81
2022/06/16 08:41:15;;;;;;;21.13;8.23;;;;;;;26.29;46.96;100952.69;4866403;29;20057;-82
2022/06/16 08:43:52;;;;;;;14.32;7.85;;;;;;;26.36;47.19;101023.13;4864724;29;20052;-82
2022/06/16 08:46:20;;;;;;;14.32;6.68;;;;;;;26.95;47.41;101036.88;4863583;29;20498;-81
2022/06/16 08:49:10;;;;;;;17.50;7.90;;;;;;;26.61;46.04;100965.25;4865233;29;20473;-82
2022/06/16 08:52:04;;;;;;;24.25;10.57;;;;;;;26.90;46.20;101001.22;4862198;29;20057;-82
2022/06/16 08:54:42;;;;;;;25.05;10.68;;;;;;;25.82;46.89;100977.66;4863776;29;20057;-81
2022/06/16 08:57:31;;;;;;;24.05;11.13;;;;;;;26.21;47.28;101030.25;4864010;29;20068;-82
2022/06/16 09:00:13;;;;;;;19.35;9.02;;;;;;;26.52;46.33;100956.72;4865060;29;20060;-82
2022/06/16 09:02:50;;;;;;;32.30;15.38;;;;;;;26.33;46.89;100942.59;4845629;29;20069;-82
2022/06/16 09:05:48;;;;;;;20.00;8.98;;;;;;;26.55;44.97;100962.91;4864425;29;20136;-82
2022/06/16 09:08:53;;;;;;;28.95;13.52;;;;;;;26.41;45.09;100947.53;4863234;29;20113;-82
2022/06/16 09:12:03;;;;;;;13.88;6.78;;;;;;;26.59;43.19;101021.00;4847423;29;20049;-81
2022/06/16 09:15:13;;;;;;;17.48;8.70;;;;;;;27.02;46.57;100997.84;4850864;29;20058;-82
2022/06/16 09:18:00;;;;;;;15.50;8.52;;;;;;;26.42;43.28;101000.41;4861149;29;20052;-82
2022/06/16 09:21:01;;;;;;;24.25;10.55;;;;;;;27.14;44.81;101001.63;4863623;29;20564;-82
2022/06/16 09:23:45;;;;;;;25.42;11.88;;;;;;;26.86;44.03;100927.00;4857882;29;20053;-81
2022/06/16 09:26:20;;;;;;;13.10;7.82;;;;;;;27.03;43.77;100966.38;4854450;29;20064;-82
2022/06/16 09:28:57;;;;;;;11.20;5.72;;;;;;;26.51;46.45;100999.88;4864566;29;20144;-81
2022/06/16 09:31:49;;;;;;;11.70;6.75;;;;;;;25.77;46.65;100990.50;4862086;29;20114;-81
2022/06/16 09:34:36;;;;;;;16.60;8.68;;;;;;;25.73;47.25;101007.78;4862626;29;20133;-80
2022/06/16 09:37:08;;;;;;;20.92;10.82;;;;;;;25.72;46.17;101010.53;4862564;29;20786;-82
2022/06/16 09:39:40;;;;;;;12.90;5.28;;;;;;;25.32;45.38;100953.53;4847082;29;20049;-81
2022/06/16 09:45:00;;;;;;;9.85;5.72;;;;;;;24.62;49.06;100980.31;4864652;29;20152;-81
2022/06/16 09:47:31;;;;;;;21.70;8.40;;;;;;;24.26;46.13;100916.78;4864559;29;20083;-80
2022/06/16 09:50:29;;;;;;;19.67;9.75;;;;;;;24.40;48.81;100924.16;4846756;29;20053;-80
2022/06/16 09:53:09;;;;;;;14.40;8.35;;;;;;;24.90;46.36;100944.03;4770615;29;20172;-81
2022/06/16 09:55:39;;;;;;;9.70;6.32;;;;;;;24.97;47.88;100996.47;4863347;29;20638;-81
2022/06/16 09:58:22;;;;;;;12.15;6.90;;;;;;;24.67;47.65;100923.75;4864850;29;20562;-81
2022/06/16 10:00:48;;;;;;;13.07;7.00;;;;;;;24.21;48.84;100917.00;4847379;29;20048;-82
2022/06/16 10:03:20;;;;;;;16.60;7.15;;;;;;;24.83;49.05;100983.75;4861865;29;20060;-81
2022/06/16 10:05:58;;;;;;;8.77;6.00;;;;;;;24.61;49.26;100992.88;4850349;29;20064;-81
2022/06/16 10:08:36;;;;;;;16.13;9.68;;;;;;;24.88;49.16;100970.09;4865195;29;20102;-81
2022/06/16 10:11:13;;;;;;;13.48;5.60;;;;;;;24.98;47.43;100985.69;4864670;29;20056;-82
2022/06/16 10:14:04;;;;;;;8.30;4.93;;;;;;;25.23;46.94;100973.69;4861373;29;20056;-81
2022/06/16 10:16:43;;;;;;;11.57;5.68;;;;;;;25.54;45.47;100969.38;4849809;29;20059;-82
2022/06/16 10:19:13;;;;;;;20.27;8.68;;;;;;;25.48;47.73;100909.63;4881390;29;20037;-81
2022/06/16 10:21:38;;;;;;;9.85;4.28;;;;;;;25.64;46.78;100968.81;4879740;29;20061;-81
2022/06/16 10:24:07;;;;;;;16.80;7.78;;;;;;;25.10;47.93;100918.81;4881770;29;20056;-81
2022/06/16 10:26:35;;;;;;;10.50;6.32;;;;;;;25.37;48.54;100964.91;4886163;29;20140;-81
2022/06/16 10:29:22;;;;;;;19.92;8.27;;;;;;;25.28;50.33;100968.94;4880930;29;20053;-80
2022/06/16 10:31:49;;;;;;;14.65;6.65;;;;;;;24.96;47.22;100973.25;4883041;29;20057;-81
2022/06/16 10:34:28;;;;;;;9.38;4.22;;;;;;;24.47;47.93;100903.25;4876619;29;20037;-81
2022/06/16 10:36:59;;;;;;;20.80;8.05;;;;;;;25.12;48.81;100971.50;4884816;29;20044;-81
2022/06/16 10:39:35;;;;;;;8.00;4.68;;;;;;;24.75;50.25;100900.94;4881305;29;20070;-81
2022/06/16 10:42:10;;;;;;;14.18;7.20;;;;;;;24.85;44.95;100960.38;4880159;29;20060;-80
2022/06/16 10:44:39;;;;;;;7.47;5.03;;;;;;;24.46;44.64;100898.81;4883983;29;20052;-82
2022/06/16 10:47:17;;;;;;;18.08;8.68;;;;;;;24.83;46.05;100911.28;4874150;29;20048;-81
2022/06/16 10:49:46;;;;;;;6.97;4.38;;;;;;;25.09;47.38;100949.31;4877201;29;20074;-81
2022/06/16 10:52:34;;;;;;;11.25;6.32;;;;;;;24.68;47.52;100898.63;4880777;29;20032;-81
2022/06/16 10:55:19;;;;;;;16.98;6.82;;;;;;;25.08;47.61;100942.22;4882380;29;20063;-81
2022/06/16 10:58:19;;;;;;;31.63;7.72;;;;;;;25.09;46.53;100909.91;4881309;29;20061;-81
2022/06/16 11:01:07;;;;;;;25.23;11.13;;;;;;;26.16;44.71;100883.53;4881533;29;20060;-80
2022/06/16 11:03:40;;;;;;;14.82;7.95;;;;;;;25.79;44.04;100877.50;4888165;29;20076;-82
2022/06/16 11:06:10;;;;;;;16.13;5.32;;;;;;;25.51;45.41;100891.59;4883539;29;20060;-81
2022/06/16 11:08:38;;;;;;;11.55;4.38;;;;;;;25.60;47.30;100928.72;4879566;29;20083;-82
2022/06/16 11:11:05;;;;;;;6.95;5.38;;;;;;;25.17;46.14;100875.47;4883331;29;20060;-81
2022/06/16 11:13:37;;;;;;;10.48;5.90;;;;;;;25.46;47.34;100865.84;4884260;29;20107;-82
2022/06/16 11:16:10;;;;;;;12.60;6.28;;;;;;;25.27;48.20;100900.03;4883965;29;20072;-81
2022/06/16 11:18:37;;;;;;;17.60;8.07;;;;;;;25.37;47.90;100927.28;4863618;29;20037;-82
2022/06/16 11:21:15;;;;;;;18.88;8.57;;;;;;;24.98;48.58;100858.56;4863359;29;20068;-81
2022/06/16 11:23:48;;;;;;;31.17;13.40;;;;;;;26.32;43.90;100913.97;4861425;29;20064;-80
2022/06/16 11:26:24;;;;;;;;;;;;;;;26.35;43.26;100878.78;4866548;29;20128;-82
2022/06/16 11:29:02;;;;;;;29.45;16.48;;;;;;;26.42;42.24;100864.03;4865154;29;19935;-81
2022/06/16 11:31:44;;;;;;;31.77;11.00;;;;;;;27.20;42.58;100914.19;4833697;29;20037;-81
2022/06/16 11:34:23;;;;;;;31.02;15.70;;;;;;;27.24;41.01;100876.16;4864433;29;20037;-81
2022/06/16 11:37:07;;;;;;;41.65;20.05;;;;;;;28.09;42.06;100895.91;4865859;29;20049;-81
2022/06/16 11:39:55;;;;;;;42.67;17.77;;;;;;;28.18;39.07;100910.66;4864640;29;20136;-80
2022/06/16 11:42:32;;;;;;;52.38;23.38;;;;;;;27.56;40.01;100851.72;4866451;29;20045;-82
2022/06/16 11:45:38;;;;;;;38.40;16.55;;;;;;;27.51;41.01;100856.50;4866681;29;20077;-83
2022/06/16 11:48:20;;;;;;;46.17;23.75;;;;;;;28.10;38.89;100894.97;4863369;29;20062;-82
2022/06/16 11:51:28;;;;;;;57.05;25.00;;;;;;;28.75;40.19;100902.34;4859857;29;20180;-82
2022/06/16 11:54:06;;;;;;;57.20;28.83;;;;;;;28.45;40.46;100840.47;4866635;29;20152;-83
2022/06/16 11:57:07;;;;;;;14.93;6.45;;;;;;;27.52;39.38;100842.94;4867943;29;20057;-81
2022/06/16 11:59:54;;;;;;;51.08;23.88;;;;;;;28.75;38.78;100907.75;4868041;29;20057;-83
2022/06/16 12:02:41;;;;;;;20.35;7.95;;;;;;;28.79;38.46;100900.28;4863007;29;20132;-83
2022/06/16 12:05:58;;;;;;;46.95;21.90;;;;;;;27.96;40.27;100890.47;4868946;29;20044;-81
2022/06/16 12:08:26;;;;;;;50.85;21.17;;;;;;;27.98;37.37;100829.19;4844912;29;20073;-82
2022/06/16 12:10:56;;;;;;;26.92;14.80;;;;;;;28.68;39.05;100882.13;4862626;29;20132;-83
2022/06/16 12:13:25;;;;;;;48.75;21.90;;;;;;;28.46;38.26;100825.13;4864920;29;20165;-82
2022/06/16 12:15:59;;;;;;;39.38;19.52;;;;;;;28.83;40.52;100869.41;4849582;29;20064;-82
2022/06/16 12:18:39;;;;;;;51.85;18.63;;;;;;;28.59;38.12;100818.81;4868641;29;20489;-83
2022/06/16 12:21:24;;;;;;;47.03;16.98;;;;;;;28.44;39.22;100865.72;4864217;29;20504;-82
2022/06/16 12:24:10;;;;;;;36.00;13.52;;;;;;;28.23;41.56;100814.03;4865352;29;20068;-82
2022/06/16 12:26:41;;;;;;;14.52;8.40;;;;;;;27.96;40.06;100819.47;4842187;29;20093;-82
2022/06/16 12:29:22;;;;;;;12.20;6.18;;;;;;;27.16;41.19;100794.94;4865227;29;20509;-82
2022/06/16 12:32:26;;;;;;;21.67;7.28;;;;;;;27.42;40.90;100803.19;4865684;29;20072;-83
2022/06/16 12:35:07;;;;;;;16.50;7.55;;;;;;;27.32;42.19;100811.88;4862753;29;20049;-82
2022/06/16 12:37:44;;;;;;;10.80;6.57;;;;;;;27.37;39.52;100811.59;4865465;29;20053;-82
2022/06/16 12:40:16;;;;;;;12.43;8.27;;;;;;;27.86;38.93;100866.88;4826022;29;20132;-82
2022/06/16 12:42:52;;;;;;;10.85;6.50;;;;;;;27.52;40.63;100807.03;4866959;29;20056;-82
2022/06/16 12:45:34;;;;;;;11.82;6.60;;;;;;;27.14;40.76;100811.19;4862651;29;20132;-81
2022/06/16 12:48:10;;;;;;;17.67;9.18;;;;;;;26.99;43.05;100804.06;4839293;29;20130;-82
2022/06/16 12:50:51;;;;;;;14.57;6.85;;;;;;;26.49;40.70;100795.41;4864703;29;20049;-83
2022/06/16 12:53:42;;;;;;;14.82;8.32;;;;;;;27.47;40.20;100855.84;4861578;29;20090;-82
2022/06/16 12:56:15;;;;;;;9.70;5.57;;;;;;;27.04;40.61;100787.59;4864095;29;20063;-83
2022/06/16 12:58:49;;;;;;;17.02;7.07;;;;;;;27.07;39.62;100793.69;4864577;29;20057;-82
2022/06/16 13:01:16;;;;;;;12.75;7.32;;;;;;;27.42;41.52;100844.50;4848179;29;20122;-81
2022/06/16 13:04:01;;;;;;;12.82;5.82;;;;;;;27.50;41.86;100854.78;4865682;29;20044;-83
2022/06/16 13:06:28;;;;;;;18.40;7.93;;;;;;;27.23;39.89;100787.34;4864574;29;20069;-81
2022/06/16 13:08:59;;;;;;;12.32;6.25;;;;;;;27.21;40.58;100783.91;4850295;29;20057;-82
2022/06/16 13:12:04;;;;;;;20.92;10.30;;;;;;;27.55;41.93;100836.50;4863541;29;20142;-82
2022/06/16 13:15:15;;;;;;;19.95;9.43;;;;;;;27.24;40.27;100835.75;4847847;29;20040;-81
2022/06/16 13:18:05;;;;;;;4.60;3.20;;;;;;;26.55;41.39;100780.75;4799502;29;20110;-81
2022/06/16 13:20:33;;;;;;;27.98;9.63;;;;;;;26.58;41.38;100763.56;4828168;29;20198;-82
2022/06/16 13:23:02;;;;;;;15.13;9.00;;;;;;;27.04;41.20;100836.09;4829595;29;20931;-82
2022/06/16 13:25:42;;;;;;;17.85;7.85;;;;;;;26.88;42.14;100830.81;4843617;29;20057;-82
2022/06/16 13:28:16;;;;;;;9.57;5.95;;;;;;;26.48;40.25;100773.94;4870031;29;20048;-81
2022/06/16 13:31:02;;;;;;;15.13;7.95;;;;;;;26.65;40.60;100768.47;4856120;29;20125;-81
2022/06/16 13:34:08;;;;;;;14.77;7.30;;;;;;;26.99;41.51;100816.66;4868813;29;20167;-82
2022/06/16 13:36:44;;;;;;;13.50;7.15;;;;;;;26.92;41.14;100824.25;4854851;29;20057;-82
2022/06/16 13:39:49;;;;;;;14.13;5.82;;;;;;;26.87;41.04;100823.69;4868802;29;20131;-81
2022/06/16 13:42:55;;;;;;;16.00;6.97;;;;;;;26.40;40.22;100750.22;4847114;29;20061;-83
2022/06/16 13:45:27;;;;;;;19.17;8.82;;;;;;;26.33;40.62;100744.31;4865640;29;20081;-82
2022/06/16 13:48:16;;;;;;;9.80;4.63;;;;;;;26.56;40.20;100803.16;4849664;29;20056;-82
2022/06/16 13:51:00;;;;;;;13.35;7.05;;;;;;;26.69;41.19;100815.78;4857748;29;20549;-81
2022/06/16 13:53:25;;;;;;;12.13;5.05;;;;;;;26.69;39.87;100809.50;4852861;29;20069;-83
2022/06/16 13:56:05;;;;;;;5.55;4.03;;;;;;;27.07;40.47;100788.28;4869643;29;20049;-81
2022/06/16 13:58:58;;;;;;;19.63;9.38;;;;;;;26.66;40.26;100726.25;4870162;29;20112;-83
2022/06/16 14:01:30;;;;;;;;;;;;;;;26.63;41.15;100738.06;4870820;29;20083;-82
2022/06/16 14:03:58;;;;;;;16.27;8.00;;;;;;;27.15;40.08;100812.03;4872563;29;19924;-83
2022/06/16 14:06:38;;;;;;;20.90;9.35;;;;;;;27.09;41.64;100802.53;4849038;29;20053;-84
2022/06/16 14:09:18;;;;;;;22.90;10.68;;;;;;;26.85;39.46;100794.13;4872681;29;20068;-84
2022/06/16 14:12:09;;;;;;;13.32;6.72;;;;;;;26.54;40.23;100744.03;4871368;29;20049;-82
2022/06/16 14:14:53;;;;;;;9.27;6.15;;;;;;;26.48;39.26;100736.28;4870905;29;20049;-84
2022/06/16 14:17:57;;;;;;;15.25;8.35;;;;;;;26.80;40.81;100793.56;4866523;29;20069;-84
2022/06/16 14:20:31;;;;;;;16.90;6.78;;;;;;;26.97;40.39;100792.50;4865990;29;20053;-82
2022/06/16 14:23:01;;;;;;;8.80;5.30;;;;;;;26.91;41.74;100785.69;4850464;29;20550;-82
2022/06/16 14:25:30;;;;;;;15.45;7.03;;;;;;;26.57;42.04;100737.56;4841248;29;20037;-88
2022/06/16 14:28:04;;;;;;;18.17;9.02;;;;;;;26.72;41.77;100756.34;4862522;29;20496;-86
2022/06/16 14:30:50;;;;;;;19.85;10.13;;;;;;;26.77;40.01;100782.13;4863109;29;20087;-89
2022/06/16 14:33:23;;;;;;;13.02;7.47;;;;;;;26.50;40.77;100748.72;4844239;29;20053;-87
2022/06/16 14:36:13;;;;;;;23.30;13.00;;;;;;;26.51;39.26;100714.56;4852054;29;20064;-86
2022/06/16 14:38:47;;;;;;;26.17;11.93;;;;;;;27.05;39.13;100767.78;4862902;29;20053;-87
2022/06/16 14:41:43;;;;;;;21.45;10.07;;;;;;;27.01;39.33;100767.13;4862989;29;20053;-88
2022/06/16 14:44:28;;;;;;;24.33;12.20;;;;;;;27.21;38.14;100767.72;4864602;29;20057;-85
2022/06/16 14:47:32;;;;;;;9.88;6.20;;;;;;;27.49;37.84;100778.44;4847520;29;20133;-89
2022/06/16 14:50:07;;;;;;;15.55;8.02;;;;;;;27.36;38.69;100778.38;4861172;29;20058;-89
2022/06/16 14:53:10;;;;;;;18.10;8.95;;;;;;;26.98;38.42;100713.44;4855668;29;20029;-86
2022/06/16 14:56:06;;;;;;;13.98;8.60;;;;;;;27.38;38.13;100761.25;4770238;29;20045;-87
2022/06/16 14:58:49;;;;;;;21.65;12.60;;;;;;;27.08;38.36;100759.50;4856810;29;20343;-89
2022/06/16 15:01:34;;;;;;;10.68;6.68;;;;;;;27.16;37.68;100763.47;4866138;29;20047;-89
2022/06/16 15:04:06;;;;;;;9.68;5.90;;;;;;;27.41;37.44;100751.13;4854581;29;20125;-91
2022/06/16 15:07:19;;;;;;;9.82;5.93;;;;;;;27.10;37.27;100690.25;4846240;29;20757;-89
2022/06/16 15:09:46;;;;;;;18.37;8.43;;;;;;;27.06;36.59;100696.78;4838383;29;20057;-90
2022/06/16 15:12:16;;;;;;;20.35;7.10;;;;;;;27.31;39.29;100721.22;4843508;29;21012;-90
2022/06/16 15:14:46;;;;;;;21.75;9.02;;;;;;;27.38;37.41;100720.81;4841917;29;20080;-88
2022/06/16 15:20:07;;;;;;;13.07;6.95;;;;;;;26.86;36.66;100676.53;4870011;29;20095;-86
2022/06/16 15:22:37;;;;;;;19.90;9.70;;;;;;;26.95;37.17;100697.50;4882472;29;20219;-84
2022/06/16 15:25:05;;;;;;;16.40;7.82;;;;;;;27.11;37.56;100749.41;4885561;29;20053;-76
2022/06/16 15:27:37;;;;;;;16.58;8.52;;;;;;;26.82;39.11;100720.75;4878751;29;20041;-85
2022/06/16 15:30:25;;;;;;;29.52;13.93;;;;;;;26.59;38.42;100689.91;4883311;29;20056;-85
2022/06/16 15:38:20;;;;;;;26.40;9.77;;;;;;;26.87;38.67;100716.81;4885635;29;20112;-86
2022/06/16 15:40:49;;;;;;;16.10;8.07;;;;;;;26.78;38.40;100733.53;4878315;29;20049;-85
2022/06/16 15:43:18;;;;;;;12.43;7.35;;;;;;;26.82;37.22;100739.63;4891569;29;20037;-87